Cedar Park's Hourly Summary for Friday, July 6, 2018
Hour Temp
(f)
RH
(%)
Solar Rad.
(MJ/m2)
Rainfall
(in)
Wind
(mph)
7/6/2018 12:00 AM 75 80 0 0 0
7/6/2018 1:00 AM 74 80 0 0 0
7/6/2018 2:00 AM 74 79 0 0 0
7/6/2018 3:00 AM 75 80 0 0 0
7/6/2018 4:00 AM 76 76 0 0 0.28
7/6/2018 5:00 AM 76 75 0 0.04 2.46
7/6/2018 6:00 AM 75 98 0.01 0 2.46
7/6/2018 7:00 AM 73 98 0.33 0 0.03
7/6/2018 8:00 AM 77 98 0.94 0 0.73
7/6/2018 9:00 AM 80 84 1.6 0 2.41
7/6/2018 10:00 AM 83 74 2.27 0 2.44
7/6/2018 11:00 AM 86 65 2.88 0 3.11
7/6/2018 12:00 PM 89 59 3.23 0 3.78
7/6/2018 1:00 PM 90 52 3.23 0 4.6
7/6/2018 2:00 PM 91 47 2.82 0 4.67
7/6/2018 3:00 PM 92 43 2.82 0 5.08
7/6/2018 4:00 PM 93 38 2.42 0 5.33
7/6/2018 5:00 PM 93 38 2.42 0 5.33
7/6/2018 6:00 PM 93 40 1.72 0 5.03
7/6/2018 7:00 PM 91 41 0.51 0 4.42
7/6/2018 8:00 PM 90 44 0.22 0 3.69
7/6/2018 9:00 PM 85 60 0.03 0 3.66
7/6/2018 10:00 PM 82 65 0 0 3.76
7/6/2018 11:00 PM 80 71 0 0 3.76
Data Summary 83 66 27.45 0.04 2.79